Decoded Metar for KOJC (OLATHE/EXECUTIVE in KS, USA) (IATA:OJC) | Meteo·Mobile Aviation Weather
aviador You're here:

KOJC Decoded Metar

OLATHE/EXECUTIVE in KS, USA
Report Time2019-03-22 09:53:00
UTC Time2019-03-22 10:08:50
Flight Rules vfr VFR
Wind290° at 03 kt
W.Decomp.*RWY 36: 0.8 kt HW 2.9 kt LCW
W.Rank290° ranks 32
Current wind is below 290° avg. (6.8)
Visibility9999 m
Phenomena:N/A
Clouds:N/A
Expected CloudBase > 1,600 ft AGL from Temp-Dew spread
CeilingNone
Temp03°C (ISA -10)
Dew Point-1°C (75% RH)
AAT-0.2°C
QNH1022 hPa
Density Alt-348 ft
Elevation1,070 ft
Report Wrong Elevation
Raw Report
KOJC 220953Z AUTO 29003KT 10SM CLR 03/M01 A3017 RMK AO2 SLP217
T00331011=

Extra information for KOJC:More info

Metar Taf Metar & Taf Last 4 Metars F.Rules Stats Wind Profile Meteogram Temp Stats Airport Information Weather charts Add Link Nearby VenuesMetar ALERT Operation Metar Decoded Social comments

AIRNAV info for KOJC